sensor_id;sensor_type;location;lat;lon;timestamp;P1;durP1;ratioP1;P2;durP2;ratioP2
28862;SDS011;15994;51.796;13.006;2022-10-17T00:01:22;5.57;;;5.07;;
28862;SDS011;15994;51.796;13.006;2022-10-17T00:03:49;5.85;;;4.55;;
28862;SDS011;15994;51.796;13.006;2022-10-17T00:06:15;5.68;;;4.60;;
28862;SDS011;15994;51.796;13.006;2022-10-17T00:08:42;6.15;;;5.35;;
28862;SDS011;15994;51.796;13.006;2022-10-17T00:11:16;7.20;;;5.25;;
28862;SDS011;15994;51.796;13.006;2022-10-17T00:13:46;6.32;;;5.10;;
28862;SDS011;15994;51.796;13.006;2022-10-17T00:16:14;5.90;;;5.13;;
28862;SDS011;15994;51.796;13.006;2022-10-17T00:18:49;7.68;;;5.80;;
28862;SDS011;15994;51.796;13.006;2022-10-17T00:21:17;6.50;;;5.22;;
28862;SDS011;15994;51.796;13.006;2022-10-17T00:23:45;6.45;;;5.35;;
28862;SDS011;15994;51.796;13.006;2022-10-17T00:26:12;7.50;;;5.93;;
28862;SDS011;15994;51.796;13.006;2022-10-17T00:28:40;5.80;;;5.30;;
28862;SDS011;15994;51.796;13.006;2022-10-17T00:31:06;8.35;;;5.85;;
28862;SDS011;15994;51.796;13.006;2022-10-17T00:33:34;7.82;;;5.03;;
28862;SDS011;15994;51.796;13.006;2022-10-17T00:36:05;7.22;;;6.00;;
28862;SDS011;15994;51.796;13.006;2022-10-17T00:38:40;6.18;;;5.32;;
28862;SDS011;15994;51.796;13.006;2022-10-17T00:41:09;5.70;;;5.20;;
28862;SDS011;15994;51.796;13.006;2022-10-17T00:43:50;9.02;;;6.10;;
28862;SDS011;15994;51.796;13.006;2022-10-17T00:46:29;7.00;;;6.00;;
28862;SDS011;15994;51.796;13.006;2022-10-17T00:48:57;6.53;;;5.80;;
28862;SDS011;15994;51.796;13.006;2022-10-17T00:51:31;7.15;;;5.50;;
28862;SDS011;15994;51.796;13.006;2022-10-17T00:54:01;6.65;;;5.82;;
28862;SDS011;15994;51.796;13.006;2022-10-17T00:56:28;6.70;;;6.03;;
28862;SDS011;15994;51.796;13.006;2022-10-17T00:58:55;8.13;;;7.22;;
28862;SDS011;15994;51.796;13.006;2022-10-17T01:01:22;9.50;;;6.80;;
28862;SDS011;15994;51.796;13.006;2022-10-17T01:03:49;12.93;;;6.97;;
28862;SDS011;15994;51.796;13.006;2022-10-17T01:06:16;8.20;;;7.28;;
28862;SDS011;15994;51.796;13.006;2022-10-17T01:08:42;8.07;;;7.28;;
28862;SDS011;15994;51.796;13.006;2022-10-17T01:14:00;7.13;;;6.43;;
28862;SDS011;15994;51.796;13.006;2022-10-17T01:16:43;7.10;;;6.40;;
28862;SDS011;15994;51.796;13.006;2022-10-17T01:24:47;6.95;;;6.25;;
28862;SDS011;15994;51.796;13.006;2022-10-17T01:32:36;7.75;;;6.43;;
28862;SDS011;15994;51.796;13.006;2022-10-17T01:37:41;7.43;;;6.72;;
28862;SDS011;15994;51.796;13.006;2022-10-17T01:40:20;7.22;;;6.45;;
28862;SDS011;15994;51.796;13.006;2022-10-17T01:42:57;9.65;;;6.90;;
28862;SDS011;15994;51.796;13.006;2022-10-17T01:48:23;7.50;;;6.10;;
28862;SDS011;15994;51.796;13.006;2022-10-17T01:50:55;9.30;;;6.82;;
28862;SDS011;15994;51.796;13.006;2022-10-17T01:53:27;7.13;;;6.43;;
28862;SDS011;15994;51.796;13.006;2022-10-17T01:55:59;8.07;;;6.60;;
28862;SDS011;15994;51.796;13.006;2022-10-17T01:58:32;8.35;;;6.22;;
28862;SDS011;15994;51.796;13.006;2022-10-17T02:01:03;8.30;;;6.90;;
28862;SDS011;15994;51.796;13.006;2022-10-17T02:03:32;8.55;;;7.43;;
28862;SDS011;15994;51.796;13.006;2022-10-17T02:06:00;7.53;;;6.72;;
28862;SDS011;15994;51.796;13.006;2022-10-17T02:08:28;8.52;;;7.47;;
28862;SDS011;15994;51.796;13.006;2022-10-17T02:11:08;8.32;;;7.43;;
28862;SDS011;15994;51.796;13.006;2022-10-17T02:13:57;9.25;;;7.55;;
28862;SDS011;15994;51.796;13.006;2022-10-17T02:27:26;9.10;;;6.97;;
28862;SDS011;15994;51.796;13.006;2022-10-17T02:30:02;8.07;;;7.28;;
28862;SDS011;15994;51.796;13.006;2022-10-17T02:32:38;7.70;;;6.88;;
28862;SDS011;15994;51.796;13.006;2022-10-17T02:35:10;7.80;;;7.00;;
28862;SDS011;15994;51.796;13.006;2022-10-17T02:37:40;7.90;;;6.70;;
28862;SDS011;15994;51.796;13.006;2022-10-17T02:40:10;9.60;;;6.75;;
28862;SDS011;15994;51.796;13.006;2022-10-17T02:42:39;7.50;;;6.10;;
28862;SDS011;15994;51.796;13.006;2022-10-17T02:45:08;7.22;;;6.53;;
28862;SDS011;15994;51.796;13.006;2022-10-17T02:47:50;6.57;;;5.90;;
28862;SDS011;15994;51.796;13.006;2022-10-17T02:53:16;11.75;;;10.43;;
28862;SDS011;15994;51.796;13.006;2022-10-17T02:55:52;8.70;;;7.80;;
28862;SDS011;15994;51.796;13.006;2022-10-17T02:58:24;8.30;;;7.38;;
28862;SDS011;15994;51.796;13.006;2022-10-17T03:00:57;7.63;;;6.80;;
28862;SDS011;15994;51.796;13.006;2022-10-17T03:03:26;8.63;;;6.15;;
28862;SDS011;15994;51.796;13.006;2022-10-17T03:05:54;10.00;;;6.43;;
28862;SDS011;15994;51.796;13.006;2022-10-17T03:08:20;9.02;;;6.78;;
28862;SDS011;15994;51.796;13.006;2022-10-17T03:10:48;8.20;;;6.38;;
28862;SDS011;15994;51.796;13.006;2022-10-17T03:13:14;7.78;;;6.95;;
28862;SDS011;15994;51.796;13.006;2022-10-17T03:15:41;8.15;;;6.60;;
28862;SDS011;15994;51.796;13.006;2022-10-17T03:18:08;10.60;;;6.90;;
28862;SDS011;15994;51.796;13.006;2022-10-17T03:20:35;8.18;;;6.70;;
28862;SDS011;15994;51.796;13.006;2022-10-17T03:23:01;8.13;;;6.70;;
28862;SDS011;15994;51.796;13.006;2022-10-17T03:25:28;8.80;;;6.85;;
28862;SDS011;15994;51.796;13.006;2022-10-17T03:27:56;9.90;;;6.93;;
28862;SDS011;15994;51.796;13.006;2022-10-17T03:30:25;7.55;;;6.40;;
28862;SDS011;15994;51.796;13.006;2022-10-17T03:32:52;7.50;;;6.65;;
28862;SDS011;15994;51.796;13.006;2022-10-17T03:35:19;7.00;;;6.25;;
28862;SDS011;15994;51.796;13.006;2022-10-17T03:37:45;8.50;;;6.55;;
28862;SDS011;15994;51.796;13.006;2022-10-17T03:40:12;7.70;;;6.68;;
28862;SDS011;15994;51.796;13.006;2022-10-17T03:42:39;7.72;;;6.75;;
28862;SDS011;15994;51.796;13.006;2022-10-17T03:45:05;7.95;;;6.43;;
28862;SDS011;15994;51.796;13.006;2022-10-17T03:47:32;7.22;;;5.75;;
28862;SDS011;15994;51.796;13.006;2022-10-17T03:49:59;11.10;;;5.55;;
28862;SDS011;15994;51.796;13.006;2022-10-17T03:52:26;10.60;;;6.40;;
28862;SDS011;15994;51.796;13.006;2022-10-17T03:54:52;8.27;;;5.80;;
28862;SDS011;15994;51.796;13.006;2022-10-17T03:57:19;8.45;;;5.53;;
28862;SDS011;15994;51.796;13.006;2022-10-17T03:59:45;8.15;;;6.20;;
28862;SDS011;15994;51.796;13.006;2022-10-17T04:02:12;11.65;;;6.10;;
28862;SDS011;15994;51.796;13.006;2022-10-17T04:04:38;9.80;;;5.80;;
28862;SDS011;15994;51.796;13.006;2022-10-17T04:07:05;8.35;;;5.72;;
28862;SDS011;15994;51.796;13.006;2022-10-17T04:09:32;7.75;;;5.68;;
28862;SDS011;15994;51.796;13.006;2022-10-17T04:11:58;8.02;;;5.55;;
28862;SDS011;15994;51.796;13.006;2022-10-17T04:14:25;7.30;;;5.72;;
28862;SDS011;15994;51.796;13.006;2022-10-17T04:16:51;7.10;;;5.70;;
28862;SDS011;15994;51.796;13.006;2022-10-17T04:19:18;7.60;;;5.32;;
28862;SDS011;15994;51.796;13.006;2022-10-17T04:21:45;7.50;;;5.68;;
28862;SDS011;15994;51.796;13.006;2022-10-17T04:24:11;8.65;;;6.43;;
28862;SDS011;15994;51.796;13.006;2022-10-17T04:26:38;6.97;;;6.13;;
28862;SDS011;15994;51.796;13.006;2022-10-17T04:29:05;8.70;;;6.05;;
28862;SDS011;15994;51.796;13.006;2022-10-17T04:31:31;9.10;;;6.10;;
28862;SDS011;15994;51.796;13.006;2022-10-17T04:33:58;8.43;;;5.72;;
28862;SDS011;15994;51.796;13.006;2022-10-17T04:36:24;11.32;;;6.35;;
28862;SDS011;15994;51.796;13.006;2022-10-17T04:38:51;11.27;;;6.45;;
28862;SDS011;15994;51.796;13.006;2022-10-17T04:41:18;8.02;;;5.90;;
28862;SDS011;15994;51.796;13.006;2022-10-17T04:43:45;9.90;;;6.15;;
28862;SDS011;15994;51.796;13.006;2022-10-17T04:46:13;9.48;;;6.53;;
28862;SDS011;15994;51.796;13.006;2022-10-17T04:48:40;8.63;;;5.63;;
28862;SDS011;15994;51.796;13.006;2022-10-17T04:51:12;10.45;;;5.68;;
28862;SDS011;15994;51.796;13.006;2022-10-17T04:53:41;9.35;;;6.38;;
28862;SDS011;15994;51.796;13.006;2022-10-17T04:56:09;8.48;;;6.18;;
28862;SDS011;15994;51.796;13.006;2022-10-17T04:58:38;12.18;;;6.00;;
28862;SDS011;15994;51.796;13.006;2022-10-17T05:01:06;7.82;;;5.68;;
28862;SDS011;15994;51.796;13.006;2022-10-17T05:03:34;9.98;;;6.40;;
28862;SDS011;15994;51.796;13.006;2022-10-17T05:06:05;8.25;;;6.38;;
28862;SDS011;15994;51.796;13.006;2022-10-17T05:08:33;9.38;;;6.18;;
28862;SDS011;15994;51.796;13.006;2022-10-17T05:11:00;9.10;;;6.30;;
28862;SDS011;15994;51.796;13.006;2022-10-17T05:13:27;8.60;;;6.32;;
28862;SDS011;15994;51.796;13.006;2022-10-17T05:15:57;9.85;;;6.65;;
28862;SDS011;15994;51.796;13.006;2022-10-17T05:18:25;7.05;;;6.03;;
28862;SDS011;15994;51.796;13.006;2022-10-17T05:20:53;9.27;;;6.65;;
28862;SDS011;15994;51.796;13.006;2022-10-17T05:23:19;8.43;;;6.45;;
28862;SDS011;15994;51.796;13.006;2022-10-17T05:25:46;7.22;;;6.40;;
28862;SDS011;15994;51.796;13.006;2022-10-17T05:28:12;10.45;;;6.57;;
28862;SDS011;15994;51.796;13.006;2022-10-17T05:30:39;8.57;;;6.30;;
28862;SDS011;15994;51.796;13.006;2022-10-17T05:33:06;8.48;;;6.38;;
28862;SDS011;15994;51.796;13.006;2022-10-17T05:35:32;9.32;;;6.47;;
28862;SDS011;15994;51.796;13.006;2022-10-17T05:37:59;8.15;;;6.00;;
28862;SDS011;15994;51.796;13.006;2022-10-17T05:40:25;9.38;;;6.70;;
28862;SDS011;15994;51.796;13.006;2022-10-17T05:42:52;8.48;;;6.88;;
28862;SDS011;15994;51.796;13.006;2022-10-17T05:45:19;11.13;;;7.20;;
28862;SDS011;15994;51.796;13.006;2022-10-17T05:47:45;11.77;;;6.70;;
28862;SDS011;15994;51.796;13.006;2022-10-17T05:50:12;9.27;;;6.85;;
28862;SDS011;15994;51.796;13.006;2022-10-17T05:52:38;10.68;;;7.15;;
28862;SDS011;15994;51.796;13.006;2022-10-17T05:55:05;10.25;;;7.25;;
28862;SDS011;15994;51.796;13.006;2022-10-17T05:57:32;11.93;;;7.43;;
28862;SDS011;15994;51.796;13.006;2022-10-17T05:59:59;10.05;;;7.45;;
28862;SDS011;15994;51.796;13.006;2022-10-17T06:02:25;9.32;;;7.60;;
28862;SDS011;15994;51.796;13.006;2022-10-17T06:04:52;10.80;;;7.57;;
28862;SDS011;15994;51.796;13.006;2022-10-17T06:07:18;10.05;;;7.65;;
28862;SDS011;15994;51.796;13.006;2022-10-17T06:09:45;12.63;;;7.85;;
28862;SDS011;15994;51.796;13.006;2022-10-17T06:12:12;11.93;;;7.75;;
28862;SDS011;15994;51.796;13.006;2022-10-17T06:14:38;9.93;;;7.93;;
28862;SDS011;15994;51.796;13.006;2022-10-17T06:17:05;12.40;;;7.88;;
28862;SDS011;15994;51.796;13.006;2022-10-17T06:19:32;8.82;;;7.25;;
28862;SDS011;15994;51.796;13.006;2022-10-17T06:21:59;11.13;;;8.45;;
28862;SDS011;15994;51.796;13.006;2022-10-17T06:24:25;12.60;;;8.25;;
28862;SDS011;15994;51.796;13.006;2022-10-17T06:26:52;12.05;;;8.68;;
28862;SDS011;15994;51.796;13.006;2022-10-17T06:29:19;11.48;;;8.40;;
28862;SDS011;15994;51.796;13.006;2022-10-17T06:31:46;10.95;;;8.82;;
28862;SDS011;15994;51.796;13.006;2022-10-17T06:34:12;11.32;;;8.60;;
28862;SDS011;15994;51.796;13.006;2022-10-17T06:36:39;13.80;;;8.50;;
28862;SDS011;15994;51.796;13.006;2022-10-17T06:39:06;14.20;;;8.85;;
28862;SDS011;15994;51.796;13.006;2022-10-17T06:41:33;12.50;;;8.68;;
28862;SDS011;15994;51.796;13.006;2022-10-17T06:43:59;12.52;;;8.63;;
28862;SDS011;15994;51.796;13.006;2022-10-17T06:46:31;11.68;;;8.57;;
28862;SDS011;15994;51.796;13.006;2022-10-17T06:48:58;11.52;;;9.20;;
28862;SDS011;15994;51.796;13.006;2022-10-17T06:51:25;11.27;;;8.40;;
28862;SDS011;15994;51.796;13.006;2022-10-17T06:53:51;11.85;;;8.57;;
28862;SDS011;15994;51.796;13.006;2022-10-17T06:56:18;11.52;;;8.30;;
28862;SDS011;15994;51.796;13.006;2022-10-17T06:58:44;12.68;;;8.10;;
28862;SDS011;15994;51.796;13.006;2022-10-17T07:01:13;11.27;;;8.10;;
28862;SDS011;15994;51.796;13.006;2022-10-17T07:03:39;12.15;;;8.13;;
28862;SDS011;15994;51.796;13.006;2022-10-17T07:06:07;10.95;;;8.40;;
28862;SDS011;15994;51.796;13.006;2022-10-17T07:08:35;9.88;;;8.02;;
28862;SDS011;15994;51.796;13.006;2022-10-17T07:11:09;10.70;;;7.68;;
28862;SDS011;15994;51.796;13.006;2022-10-17T07:13:37;13.60;;;7.88;;
28862;SDS011;15994;51.796;13.006;2022-10-17T07:16:04;10.10;;;7.57;;
28862;SDS011;15994;51.796;13.006;2022-10-17T07:18:30;10.15;;;7.43;;
28862;SDS011;15994;51.796;13.006;2022-10-17T07:20:57;12.07;;;7.05;;
28862;SDS011;15994;51.796;13.006;2022-10-17T07:23:24;9.68;;;6.28;;
28862;SDS011;15994;51.796;13.006;2022-10-17T07:25:50;9.50;;;6.20;;
28862;SDS011;15994;51.796;13.006;2022-10-17T07:28:17;9.57;;;6.40;;
28862;SDS011;15994;51.796;13.006;2022-10-17T07:30:44;8.95;;;6.22;;
28862;SDS011;15994;51.796;13.006;2022-10-17T07:33:11;8.63;;;6.18;;
28862;SDS011;15994;51.796;13.006;2022-10-17T07:35:38;9.75;;;5.60;;
28862;SDS011;15994;51.796;13.006;2022-10-17T07:38:05;9.30;;;5.85;;
28862;SDS011;15994;51.796;13.006;2022-10-17T07:40:32;7.15;;;5.72;;
28862;SDS011;15994;51.796;13.006;2022-10-17T07:42:59;7.50;;;6.10;;
28862;SDS011;15994;51.796;13.006;2022-10-17T07:45:25;6.60;;;5.15;;
28862;SDS011;15994;51.796;13.006;2022-10-17T07:47:58;6.15;;;5.07;;
28862;SDS011;15994;51.796;13.006;2022-10-17T07:50:25;8.32;;;4.75;;
28862;SDS011;15994;51.796;13.006;2022-10-17T07:52:51;7.63;;;4.40;;
28862;SDS011;15994;51.796;13.006;2022-10-17T07:55:18;7.45;;;4.68;;
28862;SDS011;15994;51.796;13.006;2022-10-17T07:57:44;6.78;;;4.10;;
28862;SDS011;15994;51.796;13.006;2022-10-17T08:00:11;4.82;;;3.90;;
28862;SDS011;15994;51.796;13.006;2022-10-17T08:02:38;5.25;;;3.88;;
28862;SDS011;15994;51.796;13.006;2022-10-17T08:05:05;6.32;;;3.50;;
28862;SDS011;15994;51.796;13.006;2022-10-17T08:07:31;6.82;;;3.30;;
28862;SDS011;15994;51.796;13.006;2022-10-17T08:09:58;7.38;;;3.28;;
28862;SDS011;15994;51.796;13.006;2022-10-17T08:12:24;5.40;;;3.40;;
28862;SDS011;15994;51.796;13.006;2022-10-17T08:14:51;7.10;;;3.15;;
28862;SDS011;15994;51.796;13.006;2022-10-17T08:17:18;4.55;;;2.70;;
28862;SDS011;15994;51.796;13.006;2022-10-17T08:19:44;4.65;;;3.33;;
28862;SDS011;15994;51.796;13.006;2022-10-17T08:22:11;7.25;;;3.00;;
28862;SDS011;15994;51.796;13.006;2022-10-17T08:24:37;6.03;;;2.90;;
28862;SDS011;15994;51.796;13.006;2022-10-17T08:27:04;4.75;;;2.95;;
28862;SDS011;15994;51.796;13.006;2022-10-17T08:29:35;3.90;;;2.53;;
28862;SDS011;15994;51.796;13.006;2022-10-17T08:32:05;5.30;;;2.60;;
28862;SDS011;15994;51.796;13.006;2022-10-17T08:34:33;6.60;;;2.65;;
28862;SDS011;15994;51.796;13.006;2022-10-17T08:36:59;4.80;;;2.20;;
28862;SDS011;15994;51.796;13.006;2022-10-17T08:39:26;3.35;;;1.92;;
28862;SDS011;15994;51.796;13.006;2022-10-17T08:41:58;5.95;;;1.77;;
28862;SDS011;15994;51.796;13.006;2022-10-17T08:47:09;3.08;;;1.80;;
28862;SDS011;15994;51.796;13.006;2022-10-17T08:49:44;3.50;;;1.42;;
28862;SDS011;15994;51.796;13.006;2022-10-17T08:52:31;1.98;;;1.48;;
28862;SDS011;15994;51.796;13.006;2022-10-17T08:55:56;4.75;;;1.50;;
28862;SDS011;15994;51.796;13.006;2022-10-17T08:57:58;3.42;;;1.50;;
28862;SDS011;15994;51.796;13.006;2022-10-17T09:00:24;3.50;;;1.45;;
28862;SDS011;15994;51.796;13.006;2022-10-17T09:08:27;3.80;;;1.42;;
28862;SDS011;15994;51.796;13.006;2022-10-17T09:19:35;4.38;;;1.63;;
28862;SDS011;15994;51.796;13.006;2022-10-17T09:22:08;3.63;;;1.58;;
28862;SDS011;15994;51.796;13.006;2022-10-17T09:24:45;3.85;;;1.30;;
28862;SDS011;15994;51.796;13.006;2022-10-17T09:27:26;5.53;;;1.30;;
28862;SDS011;15994;51.796;13.006;2022-10-17T09:32:54;3.80;;;1.30;;
28862;SDS011;15994;51.796;13.006;2022-10-17T09:35:20;3.88;;;1.17;;
28862;SDS011;15994;51.796;13.006;2022-10-17T09:37:48;3.72;;;1.30;;
28862;SDS011;15994;51.796;13.006;2022-10-17T09:40:17;5.05;;;1.40;;
28862;SDS011;15994;51.796;13.006;2022-10-17T09:42:48;4.00;;;1.75;;
28862;SDS011;15994;51.796;13.006;2022-10-17T09:45:16;5.32;;;1.30;;
28862;SDS011;15994;51.796;13.006;2022-10-17T09:48:06;2.58;;;1.40;;
28862;SDS011;15994;51.796;13.006;2022-10-17T09:50:40;4.78;;;1.60;;
28862;SDS011;15994;51.796;13.006;2022-10-17T09:53:23;4.43;;;1.58;;
28862;SDS011;15994;51.796;13.006;2022-10-17T09:55:57;4.88;;;1.40;;
28862;SDS011;15994;51.796;13.006;2022-10-17T09:58:44;2.38;;;1.15;;
28862;SDS011;15994;51.796;13.006;2022-10-17T10:01:21;2.80;;;1.17;;
28862;SDS011;15994;51.796;13.006;2022-10-17T10:07:01;5.00;;;1.30;;
28862;SDS011;15994;51.796;13.006;2022-10-17T10:09:30;8.38;;;1.10;;
28862;SDS011;15994;51.796;13.006;2022-10-17T10:12:00;4.05;;;1.15;;
28862;SDS011;15994;51.796;13.006;2022-10-17T10:14:33;3.70;;;1.15;;
28862;SDS011;15994;51.796;13.006;2022-10-17T10:17:04;5.10;;;1.00;;
28862;SDS011;15994;51.796;13.006;2022-10-17T10:19:50;3.80;;;0.95;;
28862;SDS011;15994;51.796;13.006;2022-10-17T10:22:18;5.55;;;1.27;;
28862;SDS011;15994;51.796;13.006;2022-10-17T10:25:05;6.68;;;1.40;;
28862;SDS011;15994;51.796;13.006;2022-10-17T10:27:44;1.85;;;1.00;;
28862;SDS011;15994;51.796;13.006;2022-10-17T10:30:18;4.25;;;1.17;;
28862;SDS011;15994;51.796;13.006;2022-10-17T10:32:55;5.50;;;1.00;;
28862;SDS011;15994;51.796;13.006;2022-10-17T10:35:24;3.22;;;1.10;;
28862;SDS011;15994;51.796;13.006;2022-10-17T10:37:57;3.30;;;1.20;;
28862;SDS011;15994;51.796;13.006;2022-10-17T10:40:33;3.95;;;1.10;;
28862;SDS011;15994;51.796;13.006;2022-10-17T10:43:04;4.75;;;1.20;;
28862;SDS011;15994;51.796;13.006;2022-10-17T10:48:17;4.43;;;1.13;;
28862;SDS011;15994;51.796;13.006;2022-10-17T10:53:27;3.58;;;1.30;;
28862;SDS011;15994;51.796;13.006;2022-10-17T11:09:52;5.90;;;1.23;;
28862;SDS011;15994;51.796;13.006;2022-10-17T11:17:58;4.93;;;1.25;;
28862;SDS011;15994;51.796;13.006;2022-10-17T11:26:07;4.72;;;1.25;;
28862;SDS011;15994;51.796;13.006;2022-10-17T11:28:41;4.10;;;1.10;;
28862;SDS011;15994;51.796;13.006;2022-10-17T11:31:08;4.32;;;1.05;;
28862;SDS011;15994;51.796;13.006;2022-10-17T11:33:43;4.00;;;1.50;;
28862;SDS011;15994;51.796;13.006;2022-10-17T11:36:10;4.78;;;1.65;;
28862;SDS011;15994;51.796;13.006;2022-10-17T11:38:44;2.60;;;1.23;;
28862;SDS011;15994;51.796;13.006;2022-10-17T11:41:19;4.95;;;1.40;;
28862;SDS011;15994;51.796;13.006;2022-10-17T11:44:17;4.68;;;1.50;;
28862;SDS011;15994;51.796;13.006;2022-10-17T11:46:52;2.97;;;1.67;;
28862;SDS011;15994;51.796;13.006;2022-10-17T11:49:32;4.55;;;1.95;;
28862;SDS011;15994;51.796;13.006;2022-10-17T11:54:41;6.10;;;2.05;;
28862;SDS011;15994;51.796;13.006;2022-10-17T11:57:31;7.63;;;1.90;;
28862;SDS011;15994;51.796;13.006;2022-10-17T12:00:17;4.35;;;2.05;;
28862;SDS011;15994;51.796;13.006;2022-10-17T12:02:49;8.57;;;2.00;;
28862;SDS011;15994;51.796;13.006;2022-10-17T12:05:30;3.63;;;1.83;;
28862;SDS011;15994;51.796;13.006;2022-10-17T12:10:53;5.25;;;1.75;;
28862;SDS011;15994;51.796;13.006;2022-10-17T12:18:47;3.65;;;1.45;;
28862;SDS011;15994;51.796;13.006;2022-10-17T12:21:17;3.03;;;1.45;;
28862;SDS011;15994;51.796;13.006;2022-10-17T12:23:50;4.13;;;1.20;;
28862;SDS011;15994;51.796;13.006;2022-10-17T12:26:25;5.10;;;1.55;;
28862;SDS011;15994;51.796;13.006;2022-10-17T12:28:53;3.28;;;1.63;;
28862;SDS011;15994;51.796;13.006;2022-10-17T12:31:22;4.68;;;1.60;;
28862;SDS011;15994;51.796;13.006;2022-10-17T12:33:51;5.30;;;1.83;;
28862;SDS011;15994;51.796;13.006;2022-10-17T12:55:16;3.15;;;1.10;;
28862;SDS011;15994;51.796;13.006;2022-10-17T12:57:50;5.85;;;1.08;;
28862;SDS011;15994;51.796;13.006;2022-10-17T13:00:25;3.20;;;1.08;;
28862;SDS011;15994;51.796;13.006;2022-10-17T13:03:09;1.95;;;1.10;;
28862;SDS011;15994;51.796;13.006;2022-10-17T13:05:44;3.65;;;1.15;;
28862;SDS011;15994;51.796;13.006;2022-10-17T13:10:50;5.95;;;1.30;;
28862;SDS011;15994;51.796;13.006;2022-10-17T13:19:12;2.33;;;0.93;;
28862;SDS011;15994;51.796;13.006;2022-10-17T13:21:59;4.80;;;1.00;;
28862;SDS011;15994;51.796;13.006;2022-10-17T13:24:31;4.25;;;1.00;;
28862;SDS011;15994;51.796;13.006;2022-10-17T13:27:04;3.17;;;1.00;;
28862;SDS011;15994;51.796;13.006;2022-10-17T13:29:46;4.30;;;1.30;;
28862;SDS011;15994;51.796;13.006;2022-10-17T13:32:12;7.53;;;1.10;;
28862;SDS011;15994;51.796;13.006;2022-10-17T13:34:39;4.88;;;1.20;;
28862;SDS011;15994;51.796;13.006;2022-10-17T13:37:06;4.22;;;1.08;;
28862;SDS011;15994;51.796;13.006;2022-10-17T13:39:39;4.90;;;1.08;;
28862;SDS011;15994;51.796;13.006;2022-10-17T13:42:15;4.32;;;1.10;;
28862;SDS011;15994;51.796;13.006;2022-10-17T13:45:08;7.03;;;1.10;;
28862;SDS011;15994;51.796;13.006;2022-10-17T13:47:44;3.70;;;1.00;;
28862;SDS011;15994;51.796;13.006;2022-10-17T13:50:26;5.10;;;1.10;;
28862;SDS011;15994;51.796;13.006;2022-10-17T13:55:49;3.80;;;1.00;;
28862;SDS011;15994;51.796;13.006;2022-10-17T13:58:20;5.60;;;1.00;;
28862;SDS011;15994;51.796;13.006;2022-10-17T14:00:47;1.90;;;1.00;;
28862;SDS011;15994;51.796;13.006;2022-10-17T14:03:16;3.50;;;1.10;;
28862;SDS011;15994;51.796;13.006;2022-10-17T14:05:57;6.70;;;1.20;;
28862;SDS011;15994;51.796;13.006;2022-10-17T14:08:28;5.32;;;0.90;;
28862;SDS011;15994;51.796;13.006;2022-10-17T14:10:56;2.67;;;1.00;;
28862;SDS011;15994;51.796;13.006;2022-10-17T14:13:28;2.17;;;1.00;;
28862;SDS011;15994;51.796;13.006;2022-10-17T14:15:59;6.47;;;1.17;;
28862;SDS011;15994;51.796;13.006;2022-10-17T14:18:27;5.22;;;1.02;;
28862;SDS011;15994;51.796;13.006;2022-10-17T14:20:57;6.28;;;1.30;;
28862;SDS011;15994;51.796;13.006;2022-10-17T14:23:31;9.52;;;1.20;;
28862;SDS011;15994;51.796;13.006;2022-10-17T14:26:13;5.00;;;1.00;;
28862;SDS011;15994;51.796;13.006;2022-10-17T14:28:43;5.35;;;1.20;;
28862;SDS011;15994;51.796;13.006;2022-10-17T14:33:44;5.60;;;1.17;;
28862;SDS011;15994;51.796;13.006;2022-10-17T14:36:12;4.40;;;1.00;;
28862;SDS011;15994;51.796;13.006;2022-10-17T14:38:43;5.60;;;1.10;;
28862;SDS011;15994;51.796;13.006;2022-10-17T14:41:13;5.07;;;1.10;;
28862;SDS011;15994;51.796;13.006;2022-10-17T14:43:52;2.25;;;1.00;;
28862;SDS011;15994;51.796;13.006;2022-10-17T14:46:24;5.40;;;0.90;;
28862;SDS011;15994;51.796;13.006;2022-10-17T14:48:56;5.80;;;1.27;;
28862;SDS011;15994;51.796;13.006;2022-10-17T14:51:28;4.30;;;1.00;;
28862;SDS011;15994;51.796;13.006;2022-10-17T14:56:51;4.03;;;1.25;;
28862;SDS011;15994;51.796;13.006;2022-10-17T14:59:19;2.25;;;1.10;;
28862;SDS011;15994;51.796;13.006;2022-10-17T15:01:49;4.80;;;1.20;;
28862;SDS011;15994;51.796;13.006;2022-10-17T15:04:16;4.15;;;0.90;;
28862;SDS011;15994;51.796;13.006;2022-10-17T15:06:43;2.80;;;1.02;;
28862;SDS011;15994;51.796;13.006;2022-10-17T15:09:10;3.47;;;1.17;;
28862;SDS011;15994;51.796;13.006;2022-10-17T15:11:37;3.33;;;1.02;;
28862;SDS011;15994;51.796;13.006;2022-10-17T15:14:04;5.47;;;1.10;;
28862;SDS011;15994;51.796;13.006;2022-10-17T15:16:31;4.70;;;1.13;;
28862;SDS011;15994;51.796;13.006;2022-10-17T15:18:59;3.65;;;1.15;;
28862;SDS011;15994;51.796;13.006;2022-10-17T15:21:26;6.32;;;1.30;;
28862;SDS011;15994;51.796;13.006;2022-10-17T15:23:53;3.25;;;1.00;;
28862;SDS011;15994;51.796;13.006;2022-10-17T15:26:21;3.95;;;1.08;;
28862;SDS011;15994;51.796;13.006;2022-10-17T15:28:52;4.82;;;1.08;;
28862;SDS011;15994;51.796;13.006;2022-10-17T15:31:21;6.32;;;1.30;;
28862;SDS011;15994;51.796;13.006;2022-10-17T15:33:49;2.58;;;1.00;;
28862;SDS011;15994;51.796;13.006;2022-10-17T15:38:50;7.10;;;1.25;;
28862;SDS011;15994;51.796;13.006;2022-10-17T15:41:19;7.60;;;1.20;;
28862;SDS011;15994;51.796;13.006;2022-10-17T15:43:47;8.50;;;1.40;;
28862;SDS011;15994;51.796;13.006;2022-10-17T15:46:18;7.53;;;1.40;;
28862;SDS011;15994;51.796;13.006;2022-10-17T15:48:50;8.43;;;1.60;;
28862;SDS011;15994;51.796;13.006;2022-10-17T15:51:17;12.68;;;1.52;;
28862;SDS011;15994;51.796;13.006;2022-10-17T15:53:44;9.98;;;1.45;;
28862;SDS011;15994;51.796;13.006;2022-10-17T15:56:24;11.30;;;1.58;;
28862;SDS011;15994;51.796;13.006;2022-10-17T15:58:54;3.53;;;1.45;;
28862;SDS011;15994;51.796;13.006;2022-10-17T16:01:29;6.32;;;1.30;;
28862;SDS011;15994;51.796;13.006;2022-10-17T16:03:56;3.83;;;1.27;;
28862;SDS011;15994;51.796;13.006;2022-10-17T16:06:23;6.05;;;1.20;;
28862;SDS011;15994;51.796;13.006;2022-10-17T16:08:50;21.73;;;1.83;;
28862;SDS011;15994;51.796;13.006;2022-10-17T16:11:39;6.22;;;1.20;;
28862;SDS011;15994;51.796;13.006;2022-10-17T16:14:07;5.45;;;1.35;;
28862;SDS011;15994;51.796;13.006;2022-10-17T16:16:36;5.18;;;1.10;;
28862;SDS011;15994;51.796;13.006;2022-10-17T16:19:03;4.32;;;0.90;;
28862;SDS011;15994;51.796;13.006;2022-10-17T16:21:31;9.10;;;1.10;;
28862;SDS011;15994;51.796;13.006;2022-10-17T16:23:59;4.05;;;1.10;;
28862;SDS011;15994;51.796;13.006;2022-10-17T16:26:27;5.78;;;1.25;;
28862;SDS011;15994;51.796;13.006;2022-10-17T16:28:54;3.72;;;1.00;;
28862;SDS011;15994;51.796;13.006;2022-10-17T16:31:29;5.93;;;1.25;;
28862;SDS011;15994;51.796;13.006;2022-10-17T16:33:59;3.58;;;0.98;;
28862;SDS011;15994;51.796;13.006;2022-10-17T16:36:27;6.05;;;1.08;;
28862;SDS011;15994;51.796;13.006;2022-10-17T16:38:54;3.83;;;1.13;;
28862;SDS011;15994;51.796;13.006;2022-10-17T16:41:25;3.97;;;1.08;;
28862;SDS011;15994;51.796;13.006;2022-10-17T16:43:57;6.47;;;1.70;;
28862;SDS011;15994;51.796;13.006;2022-10-17T16:46:25;4.93;;;1.50;;
28862;SDS011;15994;51.796;13.006;2022-10-17T16:48:53;7.47;;;1.67;;
28862;SDS011;15994;51.796;13.006;2022-10-17T16:51:21;4.03;;;1.83;;
28862;SDS011;15994;51.796;13.006;2022-10-17T16:53:48;7.05;;;3.00;;
28862;SDS011;15994;51.796;13.006;2022-10-17T16:56:19;7.30;;;2.67;;
28862;SDS011;15994;51.796;13.006;2022-10-17T16:58:47;6.38;;;3.58;;
28862;SDS011;15994;51.796;13.006;2022-10-17T17:01:16;7.57;;;4.40;;
28862;SDS011;15994;51.796;13.006;2022-10-17T17:03:44;9.55;;;4.82;;
28862;SDS011;15994;51.796;13.006;2022-10-17T17:06:12;8.85;;;4.75;;